createdAt,value
2018-04-29T00:01:55.310Z,52.00
2018-04-29T00:04:22.884Z,51.90
2018-04-29T00:06:50.458Z,52.00
2018-04-29T00:09:18.052Z,52.00
2018-04-29T00:11:45.628Z,52.20
2018-04-29T00:14:13.196Z,52.20
2018-04-29T00:16:40.762Z,52.20
2018-04-29T00:19:08.279Z,51.80
2018-04-29T00:21:35.829Z,52.40
2018-04-29T00:24:03.415Z,51.40
2018-04-29T00:26:31.177Z,51.10
2018-04-29T00:28:58.749Z,51.10
2018-04-29T00:31:26.312Z,50.80
2018-04-29T00:33:53.890Z,50.60
2018-04-29T00:36:22.222Z,50.20
2018-04-29T00:38:49.761Z,50.20
2018-04-29T00:41:17.363Z,49.90
2018-04-29T00:43:44.945Z,49.50
2018-04-29T00:46:13.316Z,49.30
2018-04-29T00:48:40.910Z,49.30
2018-04-29T00:51:08.504Z,48.90
2018-04-29T00:53:36.046Z,49.20
2018-04-29T00:56:03.631Z,49.10
2018-04-29T00:58:31.201Z,49.70
2018-04-29T01:00:58.731Z,49.10
2018-04-29T01:03:26.300Z,49.50
2018-04-29T01:05:53.936Z,49.50
2018-04-29T01:08:21.411Z,49.60
2018-04-29T01:10:49.035Z,49.90
2018-04-29T01:13:17.449Z,50.40
2018-04-29T01:15:45.009Z,50.30
2018-04-29T01:18:12.568Z,50.50
2018-04-29T01:20:40.142Z,50.90
2018-04-29T01:23:07.714Z,51.40
2018-04-29T01:25:35.294Z,51.70
2018-04-29T01:28:02.827Z,51.80
2018-04-29T01:30:30.407Z,52.00
2018-04-29T01:32:57.941Z,51.90
2018-04-29T01:35:25.511Z,51.70
2018-04-29T01:37:53.062Z,52.00
2018-04-29T01:40:20.626Z,52.20
2018-04-29T01:42:48.155Z,52.10
2018-04-29T01:45:15.723Z,52.20
2018-04-29T01:47:43.325Z,52.20
2018-04-29T01:50:10.859Z,52.30
2018-04-29T01:52:38.422Z,52.20
2018-04-29T01:55:05.951Z,52.30
2018-04-29T01:57:33.520Z,52.10
2018-04-29T02:00:01.098Z,52.20
2018-04-29T02:02:28.855Z,52.20
2018-04-29T02:04:56.516Z,51.90
2018-04-29T02:07:24.035Z,51.80
2018-04-29T02:09:52.403Z,51.50
2018-04-29T02:12:20.732Z,51.60
2018-04-29T02:14:48.307Z,51.50
2018-04-29T02:17:15.840Z,51.70
2018-04-29T02:19:43.422Z,51.40
2018-04-29T02:22:10.997Z,51.40
2018-04-29T02:24:38.522Z,51.70
2018-04-29T02:27:06.104Z,51.90
2018-04-29T02:29:33.628Z,52.10
2018-04-29T02:32:01.972Z,52.20
2018-04-29T02:34:29.509Z,52.20
2018-04-29T02:36:57.064Z,52.60
2018-04-29T02:39:24.655Z,52.50
2018-04-29T02:41:52.341Z,52.60
2018-04-29T02:44:19.922Z,53.30
2018-04-29T02:46:47.569Z,52.60
2018-04-29T02:49:15.354Z,52.60
2018-04-29T02:51:43.131Z,52.80
2018-04-29T02:54:10.680Z,53.10
2018-04-29T02:56:38.218Z,53.10
2018-04-29T02:59:05.797Z,53.10
2018-04-29T03:01:33.628Z,52.70
2018-04-29T03:04:01.956Z,52.60
2018-04-29T03:06:29.516Z,52.60
2018-04-29T03:08:57.081Z,52.50
2018-04-29T03:11:24.687Z,52.30
2018-04-29T03:13:53.071Z,52.10
2018-04-29T03:16:21.382Z,51.80
2018-04-29T03:18:49.198Z,51.70
2018-04-29T03:21:17.631Z,51.70
2018-04-29T03:23:45.164Z,51.70
2018-04-29T03:26:12.720Z,51.50
2018-04-29T03:28:40.272Z,51.40
2018-04-29T03:31:08.600Z,51.10
2018-04-29T03:33:36.210Z,51.00
2018-04-29T03:36:03.759Z,50.80
2018-04-29T03:38:31.342Z,50.60
2018-04-29T03:40:58.903Z,50.60
2018-04-29T03:43:26.440Z,50.70
2018-04-29T03:45:54.013Z,50.60
2018-04-29T03:48:22.291Z,50.80
2018-04-29T03:50:49.856Z,50.80
2018-04-29T03:53:17.375Z,50.80
2018-04-29T03:55:45.096Z,51.00
2018-04-29T03:58:24.463Z,51.10
2018-04-29T04:01:03.761Z,51.10
2018-04-29T04:03:43.027Z,51.30
2018-04-29T04:06:10.744Z,51.60
2018-04-29T04:08:38.306Z,52.00
2018-04-29T04:11:06.019Z,51.90
2018-04-29T04:13:33.592Z,52.00
2018-04-29T04:16:01.135Z,51.90
2018-04-29T04:18:28.708Z,51.80
2018-04-29T04:20:56.275Z,51.70
2018-04-29T04:23:23.818Z,51.50
2018-04-29T04:25:51.392Z,51.50
2018-04-29T04:28:18.989Z,51.40
2018-04-29T04:30:46.554Z,51.40
2018-04-29T04:33:14.108Z,51.60
2018-04-29T04:35:41.637Z,51.70
2018-04-29T04:38:09.200Z,51.70
2018-04-29T04:40:36.771Z,51.80
2018-04-29T04:43:04.353Z,51.90
2018-04-29T04:45:31.918Z,52.00
2018-04-29T04:47:59.443Z,52.20
2018-04-29T04:50:27.783Z,52.40
2018-04-29T04:52:55.307Z,52.30
2018-04-29T04:55:22.869Z,52.20
2018-04-29T04:57:50.417Z,52.20
2018-04-29T05:00:18.007Z,52.10
2018-04-29T05:02:45.724Z,52.10
2018-04-29T05:05:14.149Z,52.20
2018-04-29T05:07:41.720Z,52.20
2018-04-29T05:10:09.241Z,52.30
2018-04-29T05:12:36.848Z,52.40
2018-04-29T05:15:04.406Z,52.40
2018-04-29T05:17:31.968Z,52.50
2018-04-29T05:19:59.512Z,52.60
2018-04-29T05:22:27.065Z,52.70
2018-04-29T05:24:54.702Z,52.80
2018-04-29T05:27:23.028Z,53.00
2018-04-29T05:29:50.587Z,53.00
2018-04-29T05:32:18.154Z,52.90
2018-04-29T05:34:45.687Z,53.10
2018-04-29T05:37:13.231Z,53.20
2018-04-29T05:39:40.752Z,53.30
2018-04-29T05:42:08.317Z,53.10
2018-04-29T05:44:35.847Z,52.90
2018-04-29T05:47:03.428Z,53.00
2018-04-29T05:49:31.021Z,53.20
2018-04-29T05:51:58.558Z,53.20
2018-04-29T05:54:27.133Z,53.50
2018-04-29T05:56:54.700Z,53.40
2018-04-29T05:59:23.005Z,53.80
2018-04-29T06:01:50.563Z,53.80
2018-04-29T06:04:18.144Z,53.70
2018-04-29T06:06:45.693Z,53.10
2018-04-29T06:09:14.104Z,53.00
2018-04-29T06:11:41.746Z,52.90
2018-04-29T06:14:09.375Z,53.00
2018-04-29T06:16:36.891Z,52.90
2018-04-29T06:19:04.457Z,52.90
2018-04-29T06:21:32.008Z,52.80
2018-04-29T06:23:59.581Z,52.80
2018-04-29T06:26:27.124Z,52.80
2018-04-29T06:28:54.669Z,52.50
2018-04-29T06:31:22.187Z,52.20
2018-04-29T06:33:50.480Z,51.90
2018-04-29T06:36:18.221Z,51.90
2018-04-29T06:38:45.878Z,51.80
2018-04-29T06:41:13.491Z,51.90
2018-04-29T06:43:41.130Z,51.80
2018-04-29T06:46:08.713Z,51.80
2018-04-29T06:48:36.253Z,51.70
2018-04-29T06:51:03.830Z,51.60
2018-04-29T06:53:31.479Z,51.50
2018-04-29T06:55:59.809Z,51.20
2018-04-29T06:58:27.561Z,51.10
2018-04-29T07:00:55.293Z,50.70
2018-04-29T07:03:23.691Z,50.10
2018-04-29T07:05:51.247Z,50.00
2018-04-29T07:08:18.802Z,49.60
2018-04-29T07:10:46.359Z,49.30
2018-04-29T07:13:14.538Z,48.80
2018-04-29T07:15:42.095Z,48.00
2018-04-29T07:18:09.620Z,47.80
2018-04-29T07:20:37.144Z,47.60
2018-04-29T07:23:04.743Z,47.30
2018-04-29T07:25:34.240Z,47.10
2018-04-29T07:28:02.591Z,46.60
2018-04-29T07:30:30.185Z,46.60
2018-04-29T07:32:57.761Z,46.20
2018-04-29T07:35:25.299Z,46.00
2018-04-29T07:37:52.955Z,45.70
2018-04-29T07:40:20.632Z,45.30
2018-04-29T07:42:48.162Z,45.30
2018-04-29T07:45:15.737Z,45.20
2018-04-29T07:47:44.076Z,44.30
2018-04-29T07:50:11.666Z,44.30
2018-04-29T07:52:39.442Z,44.40
2018-04-29T07:55:07.325Z,43.80
2018-04-29T07:57:35.216Z,43.80
2018-04-29T08:00:03.060Z,43.70
2018-04-29T08:02:30.636Z,43.50
2018-04-29T08:04:58.419Z,43.50
2018-04-29T08:07:25.986Z,43.00
2018-04-29T08:09:53.547Z,42.90
2018-04-29T08:12:21.114Z,42.80
2018-04-29T08:14:49.549Z,42.90
2018-04-29T08:17:17.919Z,42.50
2018-04-29T08:19:46.309Z,42.60
2018-04-29T08:22:13.962Z,42.50
2018-04-29T08:24:41.489Z,42.60
2018-04-29T08:27:09.090Z,42.40
2018-04-29T08:29:36.636Z,42.80
2018-04-29T08:32:04.266Z,42.70
2018-04-29T08:34:31.804Z,42.40
2018-04-29T08:36:59.407Z,42.60
2018-04-29T08:39:27.711Z,42.60
2018-04-29T08:41:55.320Z,42.70
2018-04-29T08:44:22.866Z,42.60
2018-04-29T08:46:50.925Z,42.70
2018-04-29T08:49:18.467Z,42.50
2018-04-29T08:51:46.058Z,42.50
2018-04-29T08:54:13.618Z,42.80
2018-04-29T08:56:41.134Z,43.00
2018-04-29T08:59:08.698Z,43.00
2018-04-29T09:01:36.290Z,42.80
2018-04-29T09:04:03.913Z,43.20
2018-04-29T09:06:31.514Z,43.20
2018-04-29T09:08:59.130Z,43.20
2018-04-29T09:11:26.700Z,43.20
2018-04-29T09:13:54.366Z,43.30
2018-04-29T09:16:21.924Z,43.40
2018-04-29T09:18:49.462Z,43.40
2018-04-29T09:21:17.798Z,43.50
2018-04-29T09:23:45.333Z,43.50
2018-04-29T09:26:12.914Z,43.40
2018-04-29T09:28:40.484Z,43.50
2018-04-29T09:31:08.047Z,43.60
2018-04-29T09:33:35.571Z,43.20
2018-04-29T09:36:03.133Z,43.50
2018-04-29T09:38:30.681Z,43.40
2018-04-29T09:40:58.288Z,43.60
2018-04-29T09:43:25.896Z,43.60
2018-04-29T09:45:53.472Z,43.80
2018-04-29T09:48:21.247Z,43.80
2018-04-29T09:50:48.800Z,43.90
2018-04-29T09:53:16.409Z,43.80
2018-04-29T09:55:43.976Z,43.70
2018-04-29T09:58:11.507Z,44.30
2018-04-29T10:00:39.074Z,43.90
2018-04-29T10:03:07.483Z,43.90
2018-04-29T10:05:35.816Z,44.10
2018-04-29T10:08:03.382Z,44.00
2018-04-29T10:10:30.999Z,43.80
2018-04-29T10:12:58.509Z,43.60
2018-04-29T10:15:26.106Z,43.80
2018-04-29T10:17:53.699Z,43.80
2018-04-29T10:20:21.237Z,44.00
2018-04-29T10:22:48.818Z,44.00
2018-04-29T10:25:16.419Z,44.20
2018-04-29T10:27:43.959Z,44.20
2018-04-29T10:30:11.602Z,44.30
2018-04-29T10:32:39.137Z,44.30
2018-04-29T10:35:06.706Z,44.30
2018-04-29T10:37:34.917Z,44.40
2018-04-29T10:40:02.515Z,44.50
2018-04-29T10:42:30.057Z,44.40
2018-04-29T10:44:57.622Z,44.30
2018-04-29T10:47:25.199Z,43.90
2018-04-29T10:49:52.791Z,43.80
2018-04-29T10:52:20.410Z,43.60
2018-04-29T10:54:47.972Z,43.20
2018-04-29T10:57:15.579Z,42.30
2018-04-29T10:59:43.163Z,42.80
2018-04-29T11:02:10.712Z,42.80
2018-04-29T11:04:38.385Z,42.10
2018-04-29T11:07:06.020Z,41.40
2018-04-29T11:09:33.591Z,41.40
2018-04-29T11:12:01.349Z,41.90
2018-04-29T11:14:28.942Z,42.00
2018-04-29T11:16:56.536Z,42.10
2018-04-29T11:19:24.085Z,41.20
2018-04-29T11:21:51.720Z,40.60
2018-04-29T11:24:19.274Z,40.60
2018-04-29T11:26:46.806Z,40.70
2018-04-29T11:29:14.395Z,40.30
2018-04-29T11:31:42.367Z,40.40
2018-04-29T11:34:09.937Z,40.50
2018-04-29T11:36:37.485Z,40.30
2018-04-29T11:39:05.073Z,40.10
2018-04-29T11:41:33.803Z,38.60
2018-04-29T11:44:01.365Z,38.50
2018-04-29T11:46:28.957Z,39.00
2018-04-29T11:48:56.521Z,38.80
2018-04-29T11:51:24.142Z,38.30
2018-04-29T11:53:51.751Z,37.10
2018-04-29T11:56:19.297Z,36.30
2018-04-29T11:58:46.844Z,37.50
2018-04-29T12:01:14.407Z,36.60
2018-04-29T12:03:42.374Z,37.60
2018-04-29T12:06:09.947Z,37.60
2018-04-29T12:08:37.539Z,37.40
2018-04-29T12:11:05.864Z,37.80
2018-04-29T12:13:33.476Z,37.60
2018-04-29T12:16:01.789Z,36.30
2018-04-29T12:18:29.356Z,36.20
2018-04-29T12:20:57.633Z,35.50
2018-04-29T12:23:25.229Z,35.30
2018-04-29T12:25:52.805Z,35.80
2018-04-29T12:28:20.352Z,37.00
2018-04-29T12:30:47.932Z,36.30
2018-04-29T12:33:15.484Z,36.40
2018-04-29T12:35:43.043Z,35.50
2018-04-29T12:38:11.385Z,34.20
2018-04-29T12:40:38.949Z,34.20
2018-04-29T12:43:06.516Z,35.60
2018-04-29T12:45:34.047Z,35.30
2018-04-29T12:48:01.626Z,35.60
2018-04-29T12:50:29.167Z,36.40
2018-04-29T12:52:56.746Z,35.30
2018-04-29T12:55:24.303Z,34.50
2018-04-29T12:57:51.868Z,35.00
2018-04-29T13:00:19.494Z,34.80
2018-04-29T13:02:47.131Z,33.60
2018-04-29T13:05:14.673Z,34.80
2018-04-29T13:07:42.248Z,35.00
2018-04-29T13:10:09.808Z,34.90
2018-04-29T13:12:37.405Z,35.30
2018-04-29T13:15:04.979Z,35.10
2018-04-29T13:17:32.644Z,35.10
2018-04-29T13:20:00.224Z,35.50
2018-04-29T13:22:27.775Z,35.60
2018-04-29T13:24:55.339Z,35.70
2018-04-29T13:27:23.243Z,36.10
2018-04-29T13:29:51.606Z,34.60
2018-04-29T13:32:19.909Z,34.70
2018-04-29T13:34:47.467Z,34.70
2018-04-29T13:37:15.008Z,35.10
2018-04-29T13:39:43.355Z,35.70
2018-04-29T13:42:10.916Z,35.60
2018-04-29T13:44:38.516Z,35.90
2018-04-29T13:47:06.844Z,35.80
2018-04-29T13:49:34.448Z,35.70
2018-04-29T13:52:02.755Z,35.90
2018-04-29T13:54:30.364Z,36.00
2018-04-29T13:56:57.915Z,35.80
2018-04-29T13:59:25.483Z,34.50
2018-04-29T14:01:53.117Z,35.40
2018-04-29T14:04:20.696Z,35.90
2018-04-29T14:06:48.292Z,36.00
2018-04-29T14:09:15.863Z,35.70
2018-04-29T14:11:43.509Z,35.20
2018-04-29T14:14:11.117Z,35.70
2018-04-29T14:16:38.795Z,35.40
2018-04-29T14:19:06.316Z,34.40
2018-04-29T14:21:33.971Z,34.60
2018-04-29T14:24:01.518Z,34.70
2018-04-29T14:26:29.080Z,35.00
2018-04-29T14:28:57.414Z,35.50
2018-04-29T14:31:25.884Z,35.70
2018-04-29T14:33:53.571Z,35.70
2018-04-29T14:36:21.051Z,35.80
2018-04-29T14:38:49.409Z,35.00
2018-04-29T14:41:16.991Z,34.90
2018-04-29T14:43:45.220Z,35.10
2018-04-29T14:46:12.796Z,35.60
2018-04-29T14:48:40.405Z,36.10
2018-04-29T14:51:07.971Z,36.10
2018-04-29T14:53:35.535Z,36.00
2018-04-29T14:56:03.168Z,36.10
2018-04-29T14:58:30.697Z,36.40
2018-04-29T15:00:58.273Z,36.20
2018-04-29T15:03:25.842Z,36.30
2018-04-29T15:05:54.150Z,36.00
2018-04-29T15:08:21.720Z,36.00
2018-04-29T15:10:49.265Z,35.90
2018-04-29T15:13:16.840Z,36.50
2018-04-29T15:15:44.446Z,36.10
2018-04-29T15:18:24.644Z,35.80
2018-04-29T15:20:52.192Z,35.80
2018-04-29T15:23:20.523Z,35.80
2018-04-29T15:25:48.291Z,35.80
2018-04-29T15:28:16.579Z,35.80
2018-04-29T15:30:44.147Z,35.70
2018-04-29T15:33:11.807Z,35.70
2018-04-29T15:35:39.357Z,36.20
2018-04-29T15:38:06.992Z,35.80
2018-04-29T15:40:34.601Z,36.50
2018-04-29T15:43:02.963Z,36.00
2018-04-29T15:45:30.577Z,35.90
2018-04-29T15:47:58.142Z,35.20
2018-04-29T15:50:25.704Z,35.70
2018-04-29T15:52:53.369Z,36.10
2018-04-29T15:55:20.941Z,35.60
2018-04-29T15:57:48.461Z,35.60
2018-04-29T16:00:16.042Z,36.00
2018-04-29T16:02:43.568Z,36.20
2018-04-29T16:05:11.879Z,36.20
2018-04-29T16:07:39.458Z,36.10
2018-04-29T16:10:07.020Z,36.40
2018-04-29T16:12:34.617Z,36.60
2018-04-29T16:15:02.225Z,36.60
2018-04-29T16:17:29.815Z,36.90
2018-04-29T16:19:57.397Z,37.00
2018-04-29T16:22:25.801Z,37.40
2018-04-29T16:24:53.364Z,37.40
2018-04-29T16:27:20.973Z,37.10
2018-04-29T16:29:48.610Z,37.20
2018-04-29T16:32:16.173Z,37.20
2018-04-29T16:34:43.840Z,37.10
2018-04-29T16:37:11.392Z,36.70
2018-04-29T16:39:38.982Z,37.00
2018-04-29T16:42:06.537Z,36.50
2018-04-29T16:44:34.100Z,33.10
2018-04-29T16:47:01.679Z,33.40
2018-04-29T16:49:29.270Z,33.70
2018-04-29T16:51:56.860Z,34.40
2018-04-29T16:54:24.428Z,35.50
2018-04-29T16:56:52.001Z,35.20
2018-04-29T16:59:19.532Z,35.00
2018-04-29T17:01:47.056Z,35.10
2018-04-29T17:04:15.409Z,35.70
2018-04-29T17:06:42.999Z,35.60
2018-04-29T17:09:11.391Z,35.70
2018-04-29T17:11:38.931Z,35.60
2018-04-29T17:14:06.923Z,35.40
2018-04-29T17:16:34.510Z,35.40
2018-04-29T17:19:02.040Z,35.60
2018-04-29T17:21:29.618Z,36.00
2018-04-29T17:23:57.139Z,35.90
2018-04-29T17:26:24.700Z,36.30
2018-04-29T17:28:52.233Z,36.20
2018-04-29T17:31:19.824Z,36.80
2018-04-29T17:33:47.368Z,36.80
2018-04-29T17:36:14.961Z,37.20
2018-04-29T17:38:42.744Z,37.10
2018-04-29T17:41:11.020Z,37.20
2018-04-29T17:43:38.598Z,37.10
2018-04-29T17:46:06.156Z,37.30
2018-04-29T17:48:33.754Z,37.10
2018-04-29T17:51:02.110Z,37.20
2018-04-29T17:53:29.684Z,37.10
2018-04-29T17:55:57.261Z,37.30
2018-04-29T17:58:24.837Z,37.60
2018-04-29T18:00:52.371Z,38.10
2018-04-29T18:03:20.742Z,37.70
2018-04-29T18:05:48.321Z,37.70
2018-04-29T18:08:15.928Z,37.50
2018-04-29T18:10:43.476Z,37.80
2018-04-29T18:13:12.025Z,37.60
2018-04-29T18:15:40.349Z,37.60
2018-04-29T18:18:07.876Z,37.40
2018-04-29T18:20:35.539Z,37.70
2018-04-29T18:23:03.130Z,37.90
2018-04-29T18:25:30.714Z,38.20
2018-04-29T18:27:58.304Z,38.30
2018-04-29T18:30:26.648Z,38.70
2018-04-29T18:32:54.289Z,38.70
2018-04-29T18:35:21.845Z,38.50
2018-04-29T18:37:49.420Z,38.70
2018-04-29T18:40:16.944Z,38.90
2018-04-29T18:42:44.543Z,38.80
2018-04-29T18:45:12.144Z,39.00
2018-04-29T18:47:42.822Z,39.00
2018-04-29T18:50:10.438Z,38.70
2018-04-29T18:52:38.039Z,38.60
2018-04-29T18:55:05.636Z,38.90
2018-04-29T18:57:33.261Z,38.90
2018-04-29T19:00:00.993Z,38.00
2018-04-29T19:02:28.477Z,38.00
2018-04-29T19:04:56.122Z,38.40
2018-04-29T19:07:23.684Z,38.10
2018-04-29T19:09:51.261Z,38.50
2018-04-29T19:12:18.796Z,38.10
2018-04-29T19:14:46.385Z,38.00
2018-04-29T19:17:13.964Z,38.30
2018-04-29T19:19:41.504Z,38.00
2018-04-29T19:22:09.070Z,38.20
2018-04-29T19:24:36.703Z,38.40
2018-04-29T19:27:04.283Z,38.30
2018-04-29T19:29:31.823Z,38.60
2018-04-29T19:31:59.440Z,38.80
2018-04-29T19:34:27.023Z,39.10
2018-04-29T19:36:55.426Z,38.90
2018-04-29T19:39:23.740Z,39.40
2018-04-29T19:41:51.304Z,39.30
2018-04-29T19:44:19.896Z,39.60
2018-04-29T19:46:47.435Z,39.40
2018-04-29T19:49:15.016Z,39.30
2018-04-29T19:51:42.576Z,39.50
2018-04-29T19:54:10.216Z,40.00
2018-04-29T19:56:37.843Z,40.20
2018-04-29T19:59:05.420Z,40.20
2018-04-29T20:01:32.964Z,40.10
2018-04-29T20:04:00.568Z,40.40
2018-04-29T20:06:28.150Z,40.50
2018-04-29T20:08:55.692Z,40.60
2018-04-29T20:11:23.303Z,40.40
2018-04-29T20:13:50.908Z,40.20
2018-04-29T20:16:18.481Z,40.20
2018-04-29T20:18:46.057Z,40.20
2018-04-29T20:21:13.611Z,40.40
2018-04-29T20:23:41.347Z,40.80
2018-04-29T20:26:08.908Z,40.80
2018-04-29T20:28:36.515Z,40.90
2018-04-29T20:31:04.868Z,41.30
2018-04-29T20:33:32.454Z,41.30
2018-04-29T20:36:00.765Z,41.50
2018-04-29T20:38:28.348Z,41.40
2018-04-29T20:40:55.907Z,41.40
2018-04-29T20:43:23.655Z,41.50
2018-04-29T20:45:51.253Z,41.50
2018-04-29T20:48:18.963Z,41.90
2018-04-29T20:50:46.542Z,40.70
2018-04-29T20:53:14.126Z,41.50
2018-04-29T20:55:41.732Z,41.50
2018-04-29T20:58:09.269Z,41.30
2018-04-29T21:00:36.914Z,40.90
2018-04-29T21:03:04.446Z,40.80
2018-04-29T21:05:32.075Z,40.50
2018-04-29T21:07:59.724Z,40.60
2018-04-29T21:10:27.239Z,40.10
2018-04-29T21:12:54.768Z,40.00
2018-04-29T21:15:22.328Z,39.80
2018-04-29T21:17:49.908Z,39.80
2018-04-29T21:20:17.507Z,40.00
2018-04-29T21:22:45.851Z,40.80
2018-04-29T21:25:13.443Z,40.70
2018-04-29T21:27:41.074Z,40.70
2018-04-29T21:30:08.614Z,41.10
2018-04-29T21:32:36.175Z,41.20
2018-04-29T21:35:03.705Z,41.70
2018-04-29T21:37:32.064Z,42.10
2018-04-29T21:39:59.612Z,42.00
2018-04-29T21:42:27.328Z,41.80
2018-04-29T21:44:54.911Z,41.60
2018-04-29T21:47:22.474Z,41.70
2018-04-29T21:49:50.015Z,41.60
2018-04-29T21:52:17.617Z,41.70
2018-04-29T21:54:45.166Z,42.00
2018-04-29T21:57:12.764Z,41.60
2018-04-29T21:59:41.078Z,38.50
2018-04-29T22:02:08.647Z,38.30
2018-04-29T22:04:36.192Z,39.00
2018-04-29T22:07:03.772Z,38.90
2018-04-29T22:09:31.876Z,39.30
2018-04-29T22:12:00.204Z,39.70
2018-04-29T22:14:27.764Z,39.70
2018-04-29T22:16:55.323Z,39.80
2018-04-29T22:19:23.140Z,39.80
2018-04-29T22:21:50.720Z,39.20
2018-04-29T22:24:18.307Z,39.50
2018-04-29T22:26:45.850Z,39.90
2018-04-29T22:29:13.442Z,38.70
2018-04-29T22:31:41.027Z,38.90
2018-04-29T22:34:08.609Z,37.60
2018-04-29T22:36:36.915Z,38.10
2018-04-29T22:39:04.499Z,38.00
2018-04-29T22:41:32.065Z,37.10
2018-04-29T22:43:59.628Z,36.20
2018-04-29T22:46:27.234Z,37.40
2018-04-29T22:48:54.792Z,36.30
2018-04-29T22:51:23.157Z,35.90
2018-04-29T22:53:50.727Z,35.90
2018-04-29T22:56:19.092Z,37.20
2018-04-29T22:58:46.636Z,37.10
2018-04-29T23:01:14.232Z,37.80
2018-04-29T23:03:42.596Z,35.60
2018-04-29T23:06:10.168Z,34.40
2018-04-29T23:08:38.543Z,37.00
2018-04-29T23:11:06.860Z,38.10
2018-04-29T23:13:34.457Z,37.90
2018-04-29T23:16:02.048Z,38.50
2018-04-29T23:18:29.576Z,38.40
2018-04-29T23:20:57.145Z,37.60
2018-04-29T23:23:24.678Z,37.30
2018-04-29T23:25:52.250Z,37.30
2018-04-29T23:28:19.810Z,37.40
2018-04-29T23:30:47.412Z,36.80
2018-04-29T23:33:14.984Z,37.50
2018-04-29T23:35:42.565Z,36.80
2018-04-29T23:38:10.119Z,37.00
2018-04-29T23:40:37.706Z,36.80
2018-04-29T23:43:05.300Z,35.70
2018-04-29T23:45:32.872Z,36.20
2018-04-29T23:48:01.211Z,35.20
2018-04-29T23:50:28.764Z,35.10
2018-04-29T23:52:56.444Z,35.80
2018-04-29T23:55:24.000Z,35.80
2018-04-29T23:57:51.551Z,36.20
